createdAt,value
2019-05-23T00:01:56.975Z,16.12
2019-05-23T00:04:36.562Z,14.20
2019-05-23T00:07:07.201Z,13.70
2019-05-23T00:09:36.276Z,12.95
2019-05-23T00:12:06.853Z,13.90
2019-05-23T00:14:39.631Z,13.10
2019-05-23T00:17:11.528Z,14.78
2019-05-23T00:19:40.723Z,15.30
2019-05-23T00:22:11.828Z,15.43
2019-05-23T00:24:42.836Z,13.08
2019-05-23T00:27:13.165Z,13.60
2019-05-23T00:29:43.655Z,14.35
2019-05-23T00:32:31.845Z,14.83
2019-05-23T00:35:02.497Z,15.10
2019-05-23T00:37:32.143Z,14.23
2019-05-23T00:40:01.290Z,13.98
2019-05-23T00:42:32.050Z,14.80
2019-05-23T00:45:01.350Z,14.33
2019-05-23T00:47:31.373Z,12.33
2019-05-23T00:50:01.034Z,15.70
2019-05-23T00:52:31.054Z,15.88
2019-05-23T00:55:00.385Z,18.42
2019-05-23T00:57:29.524Z,18.45
2019-05-23T00:59:59.537Z,18.92
2019-05-23T01:02:28.584Z,19.32
2019-05-23T01:04:58.914Z,19.10
2019-05-23T01:07:28.422Z,20.05
2019-05-23T01:09:58.360Z,20.27
2019-05-23T01:12:28.563Z,19.48
2019-05-23T01:14:58.613Z,20.20
2019-05-23T01:17:28.456Z,16.42
2019-05-23T01:19:58.545Z,19.95
2019-05-23T01:22:28.382Z,15.35
2019-05-23T01:24:58.519Z,14.90
2019-05-23T01:27:27.504Z,15.58
2019-05-23T01:29:56.953Z,14.73
2019-05-23T01:32:27.624Z,15.70
2019-05-23T01:34:56.999Z,16.82
2019-05-23T01:37:26.598Z,15.32
2019-05-23T01:39:55.873Z,15.18
2019-05-23T01:42:26.232Z,15.18
2019-05-23T01:44:56.124Z,15.85
2019-05-23T01:47:26.433Z,14.20
2019-05-23T01:49:55.757Z,14.70
2019-05-23T01:52:25.873Z,16.20
2019-05-23T01:54:54.996Z,17.12
2019-05-23T01:57:25.094Z,16.62
2019-05-23T02:00:08.735Z,14.60
2019-05-23T02:04:57.306Z,15.60
2019-05-23T02:07:27.242Z,16.75
2019-05-23T02:09:56.386Z,16.10
2019-05-23T02:12:26.054Z,17.10
2019-05-23T02:14:56.344Z,14.23
2019-05-23T02:17:25.765Z,15.85
2019-05-23T02:19:55.074Z,15.53
2019-05-23T02:22:24.282Z,16.20
2019-05-23T02:24:53.642Z,14.90
2019-05-23T02:27:23.715Z,14.95
2019-05-23T02:29:53.273Z,15.35
2019-05-23T02:32:23.787Z,14.58
2019-05-23T02:34:52.874Z,15.90
2019-05-23T02:37:26.253Z,14.28
2019-05-23T02:39:57.043Z,18.02
2019-05-23T02:42:31.328Z,17.37
2019-05-23T02:45:01.775Z,15.10
2019-05-23T02:47:35.321Z,17.75
2019-05-23T02:50:06.525Z,15.40
2019-05-23T02:52:39.440Z,18.23
2019-05-23T02:55:28.039Z,17.20
2019-05-23T02:57:58.553Z,16.80
2019-05-23T03:00:54.901Z,18.48
2019-05-23T03:03:27.215Z,17.80
2019-05-23T03:05:57.984Z,18.02
2019-05-23T03:08:27.675Z,17.87
2019-05-23T03:11:00.855Z,16.70
2019-05-23T03:13:30.922Z,17.82
2019-05-23T03:16:00.852Z,17.55
2019-05-23T03:18:34.433Z,16.75
2019-05-23T03:21:02.022Z,17.57
2019-05-23T03:23:31.545Z,20.32
2019-05-23T03:26:20.245Z,19.85
2019-05-23T03:28:50.035Z,28.20
2019-05-23T03:31:36.295Z,25.40
2019-05-23T03:34:07.051Z,28.17
2019-05-23T03:36:36.722Z,30.08
2019-05-23T03:39:07.723Z,25.55
2019-05-23T03:41:37.343Z,31.77
2019-05-23T03:44:08.051Z,30.75
2019-05-23T03:46:39.007Z,32.83
2019-05-23T03:49:09.232Z,38.08
2019-05-23T03:51:38.448Z,37.00
2019-05-23T03:54:08.853Z,31.82
2019-05-23T03:56:38.272Z,33.20
2019-05-23T03:59:08.213Z,30.43
2019-05-23T04:01:47.983Z,29.82
2019-05-23T04:04:09.502Z,29.37
2019-05-23T04:06:39.060Z,28.67
2019-05-23T04:09:08.345Z,31.52
2019-05-23T04:11:38.111Z,28.80
2019-05-23T04:14:08.702Z,30.02
2019-05-23T04:16:38.829Z,30.68
2019-05-23T04:19:08.353Z,29.37
2019-05-23T04:21:37.453Z,28.73
2019-05-23T04:24:06.858Z,26.93
2019-05-23T04:26:36.142Z,28.40
2019-05-23T04:29:05.558Z,29.32
2019-05-23T04:31:35.114Z,27.20
2019-05-23T04:34:05.256Z,25.55
2019-05-23T04:36:34.353Z,25.37
2019-05-23T04:39:04.178Z,26.15
2019-05-23T04:41:33.894Z,24.92
2019-05-23T04:44:03.021Z,26.42
2019-05-23T04:46:32.250Z,25.92
2019-05-23T04:49:01.171Z,27.87
2019-05-23T04:51:31.232Z,26.20
2019-05-23T04:53:59.959Z,24.95
2019-05-23T04:56:29.378Z,24.18
2019-05-23T04:58:58.478Z,23.62
2019-05-23T05:01:27.758Z,27.77
2019-05-23T05:03:56.883Z,31.45
2019-05-23T05:06:26.345Z,31.80
2019-05-23T05:08:55.983Z,29.87
2019-05-23T05:11:29.439Z,31.48
2019-05-23T05:13:56.021Z,30.25
2019-05-23T05:16:25.251Z,28.45
2019-05-23T05:18:55.312Z,27.05
2019-05-23T05:21:24.379Z,28.12
2019-05-23T05:23:53.483Z,26.65
2019-05-23T05:26:23.376Z,30.40
2019-05-23T05:28:52.901Z,27.73
2019-05-23T05:31:22.016Z,28.73
2019-05-23T05:33:51.160Z,27.30
2019-05-23T05:36:20.348Z,26.65
2019-05-23T05:38:49.648Z,25.32
2019-05-23T05:41:19.132Z,37.17
2019-05-23T05:43:48.778Z,26.37
2019-05-23T05:46:18.181Z,24.70
2019-05-23T05:48:48.021Z,22.77
2019-05-23T05:51:17.480Z,21.45
2019-05-23T05:53:47.327Z,18.37
2019-05-23T05:56:16.728Z,21.02
2019-05-23T05:58:45.890Z,20.23
2019-05-23T06:01:31.186Z,18.60
2019-05-23T06:03:46.560Z,17.62
2019-05-23T06:06:17.500Z,18.57
2019-05-23T06:08:51.117Z,20.37
2019-05-23T06:11:20.588Z,18.85
2019-05-23T06:13:49.936Z,18.25
2019-05-23T06:16:19.264Z,17.48
2019-05-23T06:18:48.893Z,17.30
2019-05-23T06:21:19.975Z,16.00
2019-05-23T06:23:49.396Z,15.85
2019-05-23T06:26:18.602Z,16.05
2019-05-23T06:28:47.904Z,17.70
2019-05-23T06:31:18.355Z,15.70
2019-05-23T06:33:47.912Z,16.80
2019-05-23T06:36:17.881Z,16.10
2019-05-23T06:38:47.382Z,18.02
2019-05-23T06:41:17.115Z,16.77
2019-05-23T06:43:46.690Z,18.45
2019-05-23T06:46:16.324Z,17.07
2019-05-23T06:48:46.231Z,15.30
2019-05-23T06:51:15.551Z,13.60
2019-05-23T06:53:45.137Z,14.98
2019-05-23T06:56:14.823Z,14.73
2019-05-23T06:58:44.358Z,14.07
2019-05-23T07:01:13.317Z,14.18
2019-05-23T07:03:43.750Z,13.95
2019-05-23T07:06:14.951Z,14.57
2019-05-23T07:08:44.604Z,13.25
2019-05-23T07:11:14.115Z,12.63
2019-05-23T07:13:44.302Z,13.10
2019-05-23T07:16:13.574Z,13.43
2019-05-23T07:18:42.842Z,16.97
2019-05-23T07:21:12.364Z,12.63
2019-05-23T07:23:41.716Z,12.73
2019-05-23T07:26:11.025Z,17.05
2019-05-23T07:28:40.793Z,15.95
2019-05-23T07:31:09.864Z,15.90
2019-05-23T07:33:39.161Z,15.53
2019-05-23T07:36:08.100Z,14.75
2019-05-23T07:38:38.759Z,13.50
2019-05-23T07:41:08.193Z,10.65
2019-05-23T07:43:38.001Z,11.30
2019-05-23T07:46:07.797Z,10.43
2019-05-23T07:48:36.996Z,10.55
2019-05-23T07:51:06.215Z,12.70
2019-05-23T07:53:43.586Z,11.45
2019-05-23T07:56:12.005Z,11.35
2019-05-23T07:58:41.146Z,10.63
2019-05-23T08:01:11.956Z,11.10
2019-05-23T08:03:41.534Z,10.93
2019-05-23T08:06:10.807Z,10.82
2019-05-23T08:08:39.713Z,10.72
2019-05-23T08:11:08.714Z,9.63
2019-05-23T08:13:37.946Z,11.10
2019-05-23T08:16:07.419Z,10.45
2019-05-23T08:18:36.671Z,11.33
2019-05-23T08:21:05.933Z,12.00
2019-05-23T08:23:35.091Z,11.97
2019-05-23T08:26:04.580Z,12.35
2019-05-23T08:28:33.875Z,11.70
2019-05-23T08:31:09.217Z,11.70
2019-05-23T08:33:38.950Z,11.88
2019-05-23T08:36:08.732Z,11.63
2019-05-23T08:38:38.371Z,11.08
2019-05-23T08:41:08.287Z,10.78
2019-05-23T08:43:37.441Z,10.88
2019-05-23T08:46:07.264Z,11.55
2019-05-23T08:48:36.486Z,12.45
2019-05-23T08:51:05.936Z,13.85
2019-05-23T08:53:35.507Z,14.65
2019-05-23T08:56:18.039Z,14.33
2019-05-23T09:01:05.374Z,18.70
2019-05-23T09:03:35.697Z,18.50
2019-05-23T09:06:04.894Z,20.70
2019-05-23T09:08:35.219Z,18.60
2019-05-23T09:11:05.524Z,19.17
2019-05-23T09:13:34.668Z,18.65
2019-05-23T09:16:03.881Z,17.55
2019-05-23T09:18:33.264Z,17.32
2019-05-23T09:21:02.457Z,19.12
2019-05-23T09:23:32.056Z,17.98
2019-05-23T09:26:01.224Z,18.57
2019-05-23T09:28:30.767Z,19.23
2019-05-23T09:30:59.973Z,17.90
2019-05-23T09:33:29.711Z,15.50
2019-05-23T09:35:59.046Z,16.30
2019-05-23T09:38:28.509Z,16.50
2019-05-23T09:40:57.937Z,14.95
2019-05-23T09:43:27.135Z,16.55
2019-05-23T09:45:56.193Z,16.17
2019-05-23T09:48:25.484Z,16.82
2019-05-23T09:50:54.721Z,16.80
2019-05-23T09:53:23.969Z,16.25
2019-05-23T09:55:55.766Z,16.23
2019-05-23T09:58:23.991Z,17.92
2019-05-23T10:00:53.039Z,15.45
2019-05-23T10:03:22.030Z,15.75
2019-05-23T10:05:51.769Z,15.40
2019-05-23T10:08:21.474Z,15.68
2019-05-23T10:10:50.877Z,15.78
2019-05-23T10:13:36.058Z,15.55
2019-05-23T10:16:05.534Z,15.63
2019-05-23T10:18:35.048Z,15.45
2019-05-23T10:21:04.333Z,14.07
2019-05-23T10:23:34.033Z,13.80
2019-05-23T10:26:03.455Z,13.55
2019-05-23T10:28:32.920Z,14.23
2019-05-23T10:31:02.294Z,14.45
2019-05-23T10:33:31.664Z,13.72
2019-05-23T10:36:01.381Z,13.83
2019-05-23T10:38:30.891Z,14.55
2019-05-23T10:41:00.247Z,13.68
2019-05-23T10:43:29.703Z,13.55
2019-05-23T10:45:59.043Z,14.43
2019-05-23T10:48:28.547Z,14.15
2019-05-23T10:50:57.822Z,13.62
2019-05-23T10:53:26.743Z,12.95
2019-05-23T10:55:56.085Z,12.23
2019-05-23T10:58:26.706Z,12.98
2019-05-23T11:00:56.123Z,12.58
2019-05-23T11:03:25.754Z,12.65
2019-05-23T11:05:55.052Z,12.95
2019-05-23T11:08:28.546Z,11.78
2019-05-23T11:10:55.014Z,10.80
2019-05-23T11:13:24.391Z,11.53
2019-05-23T11:15:54.053Z,11.35
2019-05-23T11:18:24.210Z,11.35
2019-05-23T11:20:53.494Z,11.63
2019-05-23T11:23:24.084Z,11.25
2019-05-23T11:25:53.538Z,11.18
2019-05-23T11:28:23.561Z,11.65
2019-05-23T11:30:54.212Z,12.65
2019-05-23T11:33:24.327Z,11.77
2019-05-23T11:35:53.668Z,11.90
2019-05-23T11:38:23.832Z,15.32
2019-05-23T11:40:52.932Z,15.75
2019-05-23T11:43:22.292Z,12.75
2019-05-23T11:45:58.724Z,13.00
2019-05-23T11:48:28.232Z,12.28
2019-05-23T11:50:57.412Z,13.38
2019-05-23T11:53:27.073Z,12.05
2019-05-23T11:55:56.052Z,11.73
2019-05-23T11:58:25.215Z,11.75
2019-05-23T12:01:20.920Z,15.03
2019-05-23T12:03:47.992Z,13.50
2019-05-23T12:06:17.807Z,11.40
2019-05-23T12:08:47.357Z,12.82
2019-05-23T12:11:17.371Z,11.97
2019-05-23T12:13:46.972Z,12.03
2019-05-23T12:16:16.944Z,15.50
2019-05-23T12:18:45.894Z,12.50
2019-05-23T12:21:15.288Z,12.93
2019-05-23T12:23:44.463Z,13.45
2019-05-23T12:26:13.527Z,11.03
2019-05-23T12:28:42.573Z,10.95
2019-05-23T12:31:11.715Z,10.72
2019-05-23T12:33:40.819Z,12.18
2019-05-23T12:36:12.113Z,11.70
2019-05-23T12:38:41.261Z,11.28
2019-05-23T12:41:12.132Z,11.57
2019-05-23T12:43:41.607Z,10.60
2019-05-23T12:46:10.563Z,11.28
2019-05-23T12:48:41.228Z,13.40
2019-05-23T12:51:21.304Z,11.85
2019-05-23T12:53:51.033Z,12.58
2019-05-23T12:56:20.752Z,15.43
2019-05-23T12:58:50.099Z,14.90
2019-05-23T13:01:19.451Z,13.93
2019-05-23T13:03:48.863Z,12.00
2019-05-23T13:06:18.026Z,12.18
2019-05-23T13:08:47.176Z,12.85
2019-05-23T13:11:16.483Z,11.55
2019-05-23T13:13:45.840Z,11.22
2019-05-23T13:16:15.283Z,12.25
2019-05-23T13:18:44.522Z,11.45
2019-05-23T13:21:13.711Z,12.53
2019-05-23T13:23:42.988Z,12.60
2019-05-23T13:26:13.122Z,12.53
2019-05-23T13:28:42.279Z,12.20
2019-05-23T13:31:11.371Z,13.13
2019-05-23T13:33:40.805Z,13.80
2019-05-23T13:36:10.245Z,13.85
2019-05-23T13:38:39.923Z,13.18
2019-05-23T13:41:08.904Z,12.58
2019-05-23T13:43:38.248Z,12.47
2019-05-23T13:46:07.421Z,11.97
2019-05-23T13:48:36.485Z,12.55
2019-05-23T13:51:05.874Z,12.10
2019-05-23T13:53:35.213Z,12.47
2019-05-23T13:56:04.671Z,13.22
2019-05-23T13:58:34.098Z,12.63
2019-05-23T14:01:08.860Z,12.05
2019-05-23T14:03:34.802Z,12.15
2019-05-23T14:06:03.992Z,13.95
2019-05-23T14:08:33.443Z,11.97
2019-05-23T14:11:02.769Z,12.58
2019-05-23T14:13:32.955Z,10.85
2019-05-23T14:16:02.906Z,12.00
2019-05-23T14:18:33.570Z,10.95
2019-05-23T14:21:02.923Z,12.43
2019-05-23T14:23:33.514Z,11.28
2019-05-23T14:26:03.144Z,10.25
2019-05-23T14:28:32.692Z,9.83
2019-05-23T14:31:03.743Z,9.73
2019-05-23T14:33:49.803Z,9.63
2019-05-23T14:36:23.272Z,8.63
2019-05-23T14:38:53.938Z,8.78
2019-05-23T14:41:23.148Z,8.18
2019-05-23T14:43:53.635Z,8.35
2019-05-23T14:46:23.063Z,7.70
2019-05-23T14:48:59.767Z,6.75
2019-05-23T14:51:47.304Z,6.12
2019-05-23T14:54:17.932Z,6.92
2019-05-23T14:56:48.049Z,6.75
2019-05-23T14:59:17.853Z,6.67
2019-05-23T15:01:46.828Z,8.15
2019-05-23T15:04:16.101Z,7.72
2019-05-23T15:06:45.427Z,6.00
2019-05-23T15:09:14.263Z,7.08
2019-05-23T15:11:43.822Z,6.87
2019-05-23T15:14:13.172Z,8.33
2019-05-23T15:16:42.442Z,7.75
2019-05-23T15:19:11.688Z,7.53
2019-05-23T15:21:40.772Z,7.85
2019-05-23T15:24:10.192Z,6.53
2019-05-23T15:26:39.438Z,8.10
2019-05-23T15:29:08.780Z,8.13
2019-05-23T15:31:38.117Z,7.67
2019-05-23T15:34:07.582Z,7.70
2019-05-23T15:36:36.863Z,8.35
2019-05-23T15:39:10.141Z,8.65
2019-05-23T15:41:38.703Z,9.13
2019-05-23T15:44:24.526Z,7.67
2019-05-23T15:46:38.563Z,8.55
2019-05-23T15:49:08.982Z,8.55
2019-05-23T15:51:39.552Z,8.53
2019-05-23T15:54:10.192Z,9.10
2019-05-23T15:56:40.996Z,8.38
2019-05-23T15:59:11.857Z,9.28
2019-05-23T16:01:45.638Z,9.63
2019-05-23T16:04:16.489Z,8.45
2019-05-23T16:06:45.673Z,7.47
2019-05-23T16:09:28.496Z,8.90
2019-05-23T16:11:46.403Z,9.55
2019-05-23T16:14:15.866Z,9.40
2019-05-23T16:16:45.572Z,9.08
2019-05-23T16:19:14.877Z,8.35
2019-05-23T16:21:44.268Z,9.15
2019-05-23T16:24:13.579Z,9.45
2019-05-23T16:26:42.973Z,9.40
2019-05-23T16:29:13.188Z,9.80
2019-05-23T16:31:42.985Z,11.00
2019-05-23T16:34:12.464Z,10.05
2019-05-23T16:36:41.803Z,10.50
2019-05-23T16:39:11.765Z,9.93
2019-05-23T16:41:41.147Z,8.93
2019-05-23T16:44:10.152Z,9.80
2019-05-23T16:46:39.476Z,9.23
2019-05-23T16:49:08.987Z,9.35
2019-05-23T16:51:38.469Z,9.85
2019-05-23T16:54:08.248Z,9.98
2019-05-23T16:56:39.145Z,11.68
2019-05-23T16:59:26.164Z,11.35
2019-05-23T17:02:05.658Z,13.43
2019-05-23T17:04:29.493Z,11.40
2019-05-23T17:07:12.052Z,9.55
2019-05-23T17:09:43.129Z,11.18
2019-05-23T17:12:30.540Z,11.70
2019-05-23T17:15:04.462Z,8.30
2019-05-23T17:18:00.679Z,8.40
2019-05-23T17:20:22.925Z,8.13
2019-05-23T17:22:56.577Z,6.87
2019-05-23T17:25:39.444Z,6.62
2019-05-23T17:28:16.007Z,8.60
2019-05-23T17:30:52.585Z,7.00
2019-05-23T17:33:21.955Z,7.28
2019-05-23T17:35:51.233Z,7.08
2019-05-23T17:38:20.755Z,6.70
2019-05-23T17:40:50.567Z,9.35
2019-05-23T17:43:19.672Z,7.00
2019-05-23T17:45:49.087Z,8.20
2019-05-23T17:48:18.427Z,8.80
2019-05-23T17:50:47.749Z,7.12
2019-05-23T17:53:17.123Z,8.00
2019-05-23T17:55:46.797Z,7.70
2019-05-23T17:58:17.848Z,7.72
2019-05-23T18:00:48.519Z,7.30
2019-05-23T18:03:18.041Z,8.25
2019-05-23T18:05:47.602Z,8.60
2019-05-23T18:08:17.770Z,9.43
2019-05-23T18:10:47.408Z,9.35
2019-05-23T18:13:17.236Z,10.03
2019-05-23T18:15:46.309Z,9.40
2019-05-23T18:18:15.549Z,10.58
2019-05-23T18:20:44.925Z,10.05
2019-05-23T18:23:14.103Z,26.60
2019-05-23T18:25:43.143Z,13.05
2019-05-23T18:28:12.706Z,10.03
2019-05-23T18:31:00.165Z,10.25
2019-05-23T18:33:30.928Z,10.48
2019-05-23T18:36:00.085Z,12.03
2019-05-23T18:38:29.641Z,12.68
2019-05-23T18:41:05.822Z,16.65
2019-05-23T18:43:30.476Z,13.98
2019-05-23T18:46:01.185Z,14.40
2019-05-23T18:48:30.648Z,12.93
2019-05-23T18:50:59.983Z,12.98
2019-05-23T18:53:29.150Z,13.13
2019-05-23T18:55:58.207Z,14.20
2019-05-23T18:58:27.417Z,13.00
2019-05-23T19:01:07.648Z,12.30
2019-05-23T19:03:36.811Z,13.62
2019-05-23T19:06:05.808Z,13.30
2019-05-23T19:08:34.909Z,12.70
2019-05-23T19:11:19.352Z,12.53
2019-05-23T19:13:34.788Z,11.97
2019-05-23T19:16:04.181Z,12.55
2019-05-23T19:18:34.310Z,16.12
2019-05-23T19:21:04.707Z,16.75
2019-05-23T19:23:34.246Z,15.48
2019-05-23T19:26:03.255Z,15.83
2019-05-23T19:28:32.393Z,15.60
2019-05-23T19:31:01.474Z,15.93
2019-05-23T19:33:30.984Z,14.20
2019-05-23T19:36:00.691Z,14.50
2019-05-23T19:38:30.353Z,14.75
2019-05-23T19:40:59.867Z,15.35
2019-05-23T19:43:29.108Z,14.43
2019-05-23T19:45:58.337Z,15.75
2019-05-23T19:48:27.714Z,13.95
2019-05-23T19:50:57.494Z,14.30
2019-05-23T19:53:27.330Z,12.95
2019-05-23T19:55:56.845Z,12.68
2019-05-23T19:58:26.655Z,10.55
2019-05-23T20:00:56.458Z,10.50
2019-05-23T20:03:25.611Z,11.40
2019-05-23T20:05:56.529Z,9.95
2019-05-23T20:08:25.709Z,8.55
2019-05-23T20:10:55.057Z,8.33
2019-05-23T20:13:24.387Z,8.48
2019-05-23T20:15:53.230Z,6.15
2019-05-23T20:18:22.937Z,6.92
2019-05-23T20:20:52.773Z,6.92
2019-05-23T20:23:22.247Z,6.37
2019-05-23T20:25:51.353Z,5.80
2019-05-23T20:28:21.760Z,5.67
2019-05-23T20:30:52.328Z,6.20
2019-05-23T20:33:21.818Z,6.65
2019-05-23T20:35:51.329Z,6.03
2019-05-23T20:38:20.470Z,6.00
2019-05-23T20:40:50.207Z,6.42
2019-05-23T20:43:19.453Z,7.03
2019-05-23T20:45:48.824Z,7.75
2019-05-23T20:48:18.007Z,8.18
2019-05-23T20:50:47.415Z,8.20
2019-05-23T20:53:16.501Z,12.50
2019-05-23T20:55:45.455Z,26.73
2019-05-23T20:58:14.573Z,27.67
2019-05-23T21:00:45.205Z,34.92
2019-05-23T21:03:14.377Z,53.85
2019-05-23T21:05:43.288Z,49.45
2019-05-23T21:08:12.362Z,78.05
2019-05-23T21:10:48.495Z,71.87
2019-05-23T21:13:17.775Z,60.98
2019-05-23T21:15:47.314Z,44.90
2019-05-23T21:18:16.411Z,40.85
2019-05-23T21:20:45.595Z,34.45
2019-05-23T21:23:14.795Z,33.05
2019-05-23T21:25:51.772Z,25.37
2019-05-23T21:28:21.172Z,24.67
2019-05-23T21:30:50.673Z,21.35
2019-05-23T21:33:19.910Z,16.97
2019-05-23T21:35:49.624Z,16.87
2019-05-23T21:38:18.844Z,17.25
2019-05-23T21:40:48.025Z,15.60
2019-05-23T21:43:17.517Z,15.58
2019-05-23T21:45:46.890Z,14.43
2019-05-23T21:48:16.838Z,14.33
2019-05-23T21:50:45.990Z,13.93
2019-05-23T21:53:15.215Z,15.50
2019-05-23T21:55:44.384Z,14.78
2019-05-23T21:58:14.351Z,15.45
2019-05-23T22:01:05.510Z,14.33
2019-05-23T22:03:53.432Z,16.60
2019-05-23T22:06:24.984Z,17.17
2019-05-23T22:08:54.412Z,27.93
2019-05-23T22:11:23.451Z,27.82
2019-05-23T22:13:52.540Z,21.07
2019-05-23T22:16:21.857Z,17.65
2019-05-23T22:18:50.832Z,15.88
2019-05-23T22:21:19.845Z,14.55
2019-05-23T22:23:49.573Z,12.58
2019-05-23T22:26:18.767Z,10.75
2019-05-23T22:28:48.051Z,9.55
2019-05-23T22:31:17.313Z,9.43
2019-05-23T22:33:59.796Z,8.80
2019-05-23T22:36:29.119Z,7.42
2019-05-23T22:38:58.344Z,7.47
2019-05-23T22:41:27.544Z,7.08
2019-05-23T22:43:56.742Z,7.22
2019-05-23T22:46:27.124Z,7.12
2019-05-23T22:48:56.525Z,6.15
2019-05-23T22:51:25.772Z,6.85
2019-05-23T22:53:55.097Z,8.00
2019-05-23T22:56:24.508Z,8.48
2019-05-23T22:58:54.027Z,8.88
2019-05-23T23:01:24.624Z,9.10
2019-05-23T23:03:54.273Z,9.53
2019-05-23T23:06:23.625Z,9.73
2019-05-23T23:08:52.772Z,10.68
2019-05-23T23:11:21.912Z,14.65
2019-05-23T23:13:51.225Z,15.03
2019-05-23T23:16:20.606Z,15.48
2019-05-23T23:18:49.862Z,17.75
2019-05-23T23:21:19.223Z,19.75
2019-05-23T23:23:48.308Z,20.02
2019-05-23T23:26:17.817Z,20.25
2019-05-23T23:28:46.851Z,21.90
2019-05-23T23:31:16.164Z,32.25
2019-05-23T23:33:45.378Z,49.58
2019-05-23T23:36:14.591Z,46.15
2019-05-23T23:38:43.832Z,31.68
2019-05-23T23:41:13.071Z,24.50
2019-05-23T23:43:57.822Z,19.55
2019-05-23T23:46:31.428Z,17.10
2019-05-23T23:49:18.706Z,15.70
2019-05-23T23:52:05.623Z,16.93
2019-05-23T23:54:52.743Z,22.40
2019-05-23T23:57:40.163Z,29.45
